James Reserve, California Weather observations

Data are for 10 minute period ending at time listed.
 Day   Time   Solar   Ave.   Ave.  Ave.  Vector  Max.   Baro.   Total    
  of    of     Rad.   Air    Rel.  Wind   Wind   Wind  Press.  Precip.   
Year   Day            Temp.  Hum.  Speed  Dir.   Gust                    
2017   (PST)  Kw/m2    F      %     mph   deg.    mph    mb.     in.     
-------------------------------------------------------------------------
 115   22:40   0.00   38.9    88    0.5    35     1.2   835.0    0.00 
 115   22:50   0.00   38.9    88    0.5    30     1.6   835.0    0.00 
 115   23:00   0.00   38.9    87    0.5    29     1.0   835.0    0.00 
 115   23:10   0.00   38.8    87    0.4    38     1.3   835.0    0.00 
 115   23:20   0.00   38.7    87    0.5    33     0.8   835.0    0.00 
 115   23:30   0.00   38.6    86    0.5    24     1.1   835.0    0.00 
 115   23:40   0.00   38.6    85    0.5    33     1.1   835.0    0.00 
 115   23:50   0.00   38.6    85    0.5    32     1.0   835.0    0.00 
 116    0:00   0.00   38.7    84    0.5    30     0.8   835.0    0.00 
 116    0:10   0.00   38.9    82    0.4    27     0.7   835.0    0.00 
 116    0:20   0.00   39.2    81    0.5    40     0.8   835.0    0.00 
 116    0:30   0.00   39.3    80    0.5    29     0.8   834.0    0.00 
 116    0:40   0.00   39.6    80    0.4    29     0.7   834.0    0.00 
 116    0:50   0.00   40.0    80    0.4    43     0.9   834.0    0.00 
 116    1:00   0.00   40.4    79    0.5    36     0.8   834.0    0.00 
 116    1:10   0.00   40.8    78    0.4    38     1.3   834.0    0.00 
 116    1:20   0.00   41.1    76    0.6    33     1.3   834.0    0.00 
 116    1:30   0.00   41.3    76    0.5    41     1.1   834.0    0.00 
 116    1:40   0.00   41.9    73    0.7    45     1.1   834.0    0.00 
 116    1:50   0.00   42.5    71    0.7    40     1.3   834.0    0.00 
 116    2:00   0.00   42.9    69    0.5    42     1.0   834.0    0.00 
 116    2:10   0.00   42.9    69    0.5    38     1.1   834.0    0.00 
 116    2:20   0.00   42.9    69    0.5    42     1.0   834.0    0.00 
 116    2:30   0.00   42.7    69    0.4    29     0.9   834.0    0.00 
 116    2:40   0.00   42.6    70    0.3    20     0.8   834.0    0.00 
 116    2:50   0.00   42.4    70    0.6    36     1.4   834.0    0.00 
 116    3:00   0.00   42.5    70    0.4    31     1.1   834.0    0.00 
 116    3:10   0.00   42.6    69    0.4    33     0.9   834.0    0.00 
 116    3:20   0.00   42.7    69    0.5    38     0.9   834.0    0.00 
 116    3:30   0.00   42.7    69    0.5    30     0.9   834.0    0.00 
 116    3:40   0.00   42.8    68    0.5    36     0.9   834.0    0.00 
 116    3:50   0.00   42.8    68    0.5    40     1.3   834.0    0.00 
 116    4:00   0.00   42.8    68    0.5    32     1.2   834.0    0.00 
 116    4:10   0.00   42.4    69    0.3   217     0.8   834.0    0.00 
 116    4:20   0.00   42.0    70    0.5    35     1.0   834.0    0.00 
 116    4:30   0.00   42.3    70    0.3    42     1.0   834.0    0.00 
 116    4:40   0.00   42.1    72    0.5    41     1.6   834.0    0.00 
 116    4:50   0.00   42.2    70    0.5    31     0.7   834.0    0.00 
 116    5:00   0.00   42.4    69    0.4    36     0.6   834.0    0.00 
 116    5:10   0.00   42.3    70    0.3    39     0.6   834.0    0.00 
 116    5:20   0.01   42.2    69    0.3    28     0.6   834.0    0.00 
 116    5:30   0.01   42.3    69    0.4    37     0.7   834.0    0.00 
 116    5:40   0.02   42.7    70    0.3    36     0.7   835.0    0.00 
 116    5:50   0.03   43.0    70    0.4    30     0.7   835.0    0.00 
 116    6:00   0.04   43.5    69    0.4    37     0.8   835.0    0.00 
 116    6:10   0.05   44.0    70    0.4    48     0.7   835.0    0.00 
 116    6:20   0.05   44.7    70    0.5    43     0.7   835.0    0.00 
 116    6:30   0.04   45.6    68    0.7    51     0.9   835.0    0.00 
 116    6:40   0.05   46.1    68    0.6    47     0.8   835.0    0.00 
 116    6:50   0.10   47.0    68    0.7    51     0.9   835.0    0.00 
 116    7:00   0.11   48.3    66    0.5    45     0.8   835.0    0.00 
 116    7:10   0.06   48.9    66    0.7    47     1.1   835.0    0.00 
 116    7:20   0.07   49.4    67    0.7    46     1.0   835.0    0.00 
 116    7:30   0.07   49.9    66    0.8    59     1.4   835.0    0.00 
 116    7:40   0.09   50.6    65    0.7    58     1.2   835.0    0.00 
 116    7:50   0.11   51.6    62    0.5    44     1.0   835.0    0.00 
 116    8:00   0.39   53.4    59    0.5    52     1.0   835.0    0.00 
 116    8:10   0.31   54.7    57    0.4    50     0.8   835.0    0.00 
 116    8:20   0.42   55.9    56    0.4    35     0.8   835.0    0.00 
 116    8:30   0.59   58.5    51    0.6    55     1.6   835.0    0.00 
 116    8:40   0.37   61.0    42    0.7   164     2.5   835.0    0.00 
 116    8:50   0.40   62.9    33    0.8   217     1.9   835.0    0.00 
 116    9:00   0.35   63.1    33    0.8    95     3.0   835.0    0.00 
 116    9:10   0.39   62.5    33    1.2    86     3.6   836.0    0.00 
 116    9:20   0.42   62.2    33    1.1   154     3.3   836.0    0.00 
 116    9:30   0.51   61.8    34    0.9   133     2.6   836.0    0.00 
 116    9:40   0.86   62.4    34    1.6   101     4.0   836.0    0.00 
 116    9:50   0.98   63.2    35    1.2   118     3.3   836.0    0.00 
 116   10:00   0.78   63.0    36    1.3    98     3.6   836.0    0.00 
 116   10:10   0.80   63.2    37    1.4   151     6.3   835.0    0.00 
 116   10:20   0.73   63.1    37    1.5   160     3.8   835.0    0.00 
 116   10:30   0.75   63.4    37    1.4   140     3.2   836.0    0.00 
 116   10:40   0.83   63.8    36    1.3   109     4.0   835.0    0.00 
 116   10:50   0.71   63.3    37    1.3   179     3.4   835.0    0.00 
 116   11:00   0.94   63.3    37    1.3   164     4.1   836.0    0.00 
 116   11:10   1.05   65.3    35    1.4   175     2.9   835.0    0.00 
 116   11:20   1.05   64.8    35    1.4   181     4.1   835.0    0.00 
 116   11:30   1.06   64.3    36    1.5   130     3.2   835.0    0.00 
 116   11:40   1.03   65.0    35    1.3    43     3.1   835.0    0.00 
 116   11:50   1.03   64.7    36    1.1   171     2.4   835.0    0.00 
 116   12:00   1.05   63.8    36    1.0    59     2.5   835.0    0.00 
 116   12:10   1.05   65.0    35    1.2    37     2.9   835.0    0.00 
 116   12:20   1.04   65.6    35    1.0   234     3.1   835.0    0.00 
 116   12:30   1.00   64.1    36    1.3   150     4.0   835.0    0.00 
 116   12:40   1.02   64.5    36    1.0    66     2.5   835.0    0.00 
 116   12:50   0.98   64.7    36    1.2    36     3.5   835.0    0.00 
 116   13:00   0.95   64.2    38    1.2   200     3.2   835.0    0.00 
 116   13:10   0.90   65.4    37    0.9    22     2.9   835.0    0.00 
 116   13:20   0.79   64.9    38    1.1     4     3.1   835.0    0.00 
 116   13:30   0.71   65.7    38    0.8   232     2.0   835.0    0.00 
 116   13:40   0.74   66.7    36    1.1   337     4.7   835.0    0.00 
 116   13:50   0.59   64.7    39    0.9   190     3.1   835.0    0.00 
 116   14:00   0.53   64.8    40    0.9    96     2.4   835.0    0.00 
 116   14:10   0.60   64.1    41    0.7   261     2.0   835.0    0.00 
 116   14:20   0.33   63.2    43    1.0   125     3.2   835.0    0.00 
 116   14:30   0.23   61.6    47    1.0   194     2.2   835.0    0.00 
 116   14:40   0.22   61.3    49    1.1   160     3.2   835.0    0.00 
 116   14:50   0.23   61.2    50    0.7   136     2.1   835.0    0.00 
 116   15:00   0.21   61.6    48    0.8   247     2.5   834.0    0.00 
 116   15:10   0.18   61.9    48    0.9   204     2.6   834.0    0.00 
 116   15:20   0.17   60.8    50    1.0   169     2.8   834.0    0.00 
 116   15:30   0.15   60.7    51    1.2    43     2.5   834.0    0.00 
 116   15:40   0.12   61.3    50    1.0   330     2.2   834.0    0.00 
 116   15:50   0.06   61.9    50    1.1   225     3.6   834.0    0.00 
 116   16:00   0.10   60.7    53    0.9    32     2.3   834.0    0.00 
 116   16:10   0.09   59.4    55    0.6   306     1.4   834.0    0.00 
 116   16:20   0.07   59.1    56    0.9   157     1.7   834.0    0.00 
 116   16:30   0.09   58.6    57    0.7    19     1.4   834.0    0.00 
 116   16:40   0.09   58.7    56    1.4   129     4.8   834.0    0.00 
 116   16:50   0.10   59.1    56    1.3   356     3.3   834.0    0.00 
 116   17:00   0.06   58.6    58    1.5    53     4.0   834.0    0.00 
 116   17:10   0.05   57.3    61    0.9   202     2.6   834.0    0.00 
 116   17:20   0.04   56.3    63    0.9   211     2.7   834.0    0.00 
 116   17:30   0.03   55.8    64    1.3   352     3.6   834.0    0.00 
 116   17:40   0.03   55.6    65    1.1   285     3.5   834.0    0.00 
 116   17:50   0.02   55.1    66    1.4   207     3.1   834.0    0.00 
 116   18:00   0.02   54.8    68    0.7    51     1.9   834.0    0.00 
 116   18:10   0.01   54.5    68    1.3   215     3.7   834.0    0.00 
 116   18:20   0.01   54.0    69    0.6    13     1.5   834.0    0.00 
 116   18:30   0.00   53.2    71    0.5   255     1.3   834.0    0.00 
 116   18:40   0.00   52.3    72    0.6    25     1.4   834.0    0.00 
 116   18:50   0.00   51.5    74    0.5    20     0.9   834.0    0.00 
 116   19:00   0.00   50.8    75    0.5   357     1.7   834.0    0.00 
 116   19:10   0.00   50.2    76    0.6   122     1.6   834.0    0.00 
 116   19:20   0.00   49.6    76    0.7    40     1.4   834.0    0.00 
 116   19:30   0.00   49.1    77    0.4    35     0.9   834.0    0.00 
 116   19:40   0.00   48.5    77    0.7   344     1.4   834.0    0.00 
 116   19:50   0.00   48.2    77    0.5    33     1.3   834.0    0.00 
 116   20:00   0.00   47.8    77    0.6    31     2.0   834.0    0.00 
 116   20:10   0.00   47.3    77    0.6    19     2.2   834.0    0.00 
 116   20:20   0.00   46.8    78    0.6    42     1.2   834.0    0.00 
 116   20:30   0.00   46.5    78    0.4    12     1.2   834.0    0.00 
 116   20:40   0.00   46.0    79    0.5    41     1.5   834.0    0.00 
 116   20:50   0.00   45.8    79    0.4    19     1.6   834.0    0.00 
 116   21:00   0.00   45.5    80    0.4    36     0.8   834.0    0.00 
 116   21:10   0.00   45.4    80    0.5    30     1.1   834.0    0.00 
 116   21:20   0.00   45.4    80    0.6    17     1.4   834.0    0.00 
 116   21:30   0.00   45.4    80    0.6    67     1.4   834.0    0.00 
 116   21:40   0.00   45.2    81    0.5    24     1.1   834.0    0.00 
 116   21:50   0.00   45.1    80    0.6    24     1.8   834.0    0.00 
 116   22:00   0.00   45.1    80    0.5    51     1.2   834.0    0.00 
 116   22:10   0.00   45.3    80    0.5    29     1.1   834.0    0.00 
 116   22:20   0.00   45.4    79    0.5    38     1.1   834.0    0.00 
 116   22:30   0.00   45.5    78    0.4    31     0.9   834.0    0.00 

Return to James Reserve graphs page.


Western Regional Climate Center,wrcc@dri.edu